Time;durP1;ratioP1;P1;durP2;ratioP2;P2;SDS_P1;SDS_P2;PMS_P1;PMS_P2;Temp;Humidity;BMP_temperature;BMP_pressure;BME280_temperature;BME280_humidity;BME280_pressure;Samples;Min_cycle;Max_cycle;Signal;HPM_P1;HPM_P2
2022/11/09 00:00:43;;;;;;;6.57;3.47;;;13.50;99.90;;;;;;5093153;28;20020;-49
2022/11/09 00:03:09;;;;;;;8.50;3.35;;;13.50;99.90;;;;;;5092889;28;20031;-54
2022/11/09 00:05:35;;;;;;;6.22;3.50;;;13.60;99.90;;;;;;5092712;28;20035;-48
2022/11/09 00:08:00;;;;;;;6.95;4.15;;;13.60;99.90;;;;;;5091754;28;20024;-50
2022/11/09 00:10:26;;;;;;;7.95;3.83;;;13.50;99.90;;;;;;5092906;28;20035;-51
2022/11/09 00:12:51;;;;;;;6.93;4.90;;;13.40;99.90;;;;;;5092526;28;20042;-47
2022/11/09 00:15:17;;;;;;;5.13;4.07;;;13.30;99.90;;;;;;5091126;28;20055;-51
2022/11/09 00:17:42;;;;;;;10.52;5.28;;;13.10;99.90;;;;;;5092655;28;20030;-48
2022/11/09 00:20:09;;;;;;;8.75;5.25;;;13.00;99.90;;;;;;5092711;28;20028;-50
2022/11/09 00:22:34;;;;;;;10.80;4.82;;;12.90;99.90;;;;;;5092275;28;20060;-51
2022/11/09 00:25:00;;;;;;;11.52;5.05;;;12.90;99.90;;;;;;5092537;28;20471;-50
2022/11/09 00:27:26;;;;;;;13.18;5.55;;;12.80;99.90;;;;;;5092486;28;20032;-47
2022/11/09 00:29:51;;;;;;;13.52;6.57;;;12.80;99.90;;;;;;5092561;28;20024;-52
2022/11/09 00:32:17;;;;;;;7.28;5.63;;;12.70;99.90;;;;;;5092085;28;20032;-50
2022/11/09 00:34:43;;;;;;;7.68;5.03;;;12.60;99.90;;;;;;5092285;28;20097;-51
2022/11/09 00:37:08;;;;;;;6.07;5.05;;;12.50;99.90;;;;;;5092573;28;20028;-50
2022/11/09 00:39:34;;;;;;;9.50;5.28;;;12.50;99.90;;;;;;5092142;28;20032;-47
2022/11/09 00:41:59;;;;;;;9.18;5.03;;;12.40;99.90;;;;;;5091944;28;20049;-49
2022/11/09 00:44:25;;;;;;;8.50;5.50;;;12.30;99.90;;;;;;5092304;28;20052;-48
2022/11/09 00:46:50;;;;;;;14.32;5.47;;;12.30;99.90;;;;;;5092072;28;20141;-49
2022/11/09 00:49:16;;;;;;;8.73;5.63;;;12.30;99.90;;;;;;5091045;28;20544;-51
2022/11/09 00:51:41;;;;;;;8.60;5.35;;;12.40;99.90;;;;;;5092104;28;20070;-50
2022/11/09 00:54:07;;;;;;;9.38;4.88;;;12.40;99.90;;;;;;5091818;28;20031;-49
2022/11/09 00:56:32;;;;;;;15.80;5.40;;;12.40;99.90;;;;;;5092232;28;20024;-47
2022/11/09 00:58:58;;;;;;;9.32;4.80;;;12.50;99.90;;;;;;5091890;28;20028;-51
2022/11/09 01:01:24;;;;;;;10.48;5.50;;;12.50;99.90;;;;;;5092098;28;20032;-48
2022/11/09 01:03:49;;;;;;;9.55;5.60;;;12.60;99.90;;;;;;5090242;28;20024;-51
2022/11/09 01:06:19;;;;;;;7.90;5.82;;;12.60;99.90;;;;;;5091710;28;20027;-49
2022/11/09 01:08:45;;;;;;;12.30;5.68;;;12.60;99.90;;;;;;5091905;28;20023;-50
2022/11/09 01:11:11;;;;;;;7.18;5.50;;;12.60;99.90;;;;;;5092057;28;20122;-52
2022/11/09 01:13:37;;;;;;;12.18;6.30;;;12.60;99.90;;;;;;5091499;28;20051;-49
2022/11/09 01:16:05;;;;;;;10.40;6.15;;;12.70;99.90;;;;;;5091374;28;20050;-52
2022/11/09 01:18:31;;;;;;;13.20;6.78;;;12.70;99.90;;;;;;5091362;28;20032;-50
2022/11/09 01:20:57;;;;;;;7.28;6.15;;;12.60;99.90;;;;;;5091454;28;20031;-52
2022/11/09 01:23:22;;;;;;;7.72;6.38;;;12.60;99.90;;;;;;5091574;28;20503;-48
2022/11/09 01:25:48;;;;;;;8.32;5.93;;;12.70;99.90;;;;;;5091501;28;20024;-47
2022/11/09 01:28:13;;;;;;;12.07;6.07;;;12.60;99.90;;;;;;5091887;28;20024;-52
2022/11/09 01:30:41;;;;;;;15.38;6.45;;;12.70;99.90;;;;;;5091903;28;20547;-52
2022/11/09 01:33:10;;;;;;;9.02;6.35;;;12.70;99.90;;;;;;5091027;28;20371;-48
2022/11/09 01:35:38;;;;;;;8.07;6.25;;;12.60;99.90;;;;;;5091244;28;20047;-46
2022/11/09 01:38:05;;;;;;;10.20;6.25;;;12.70;99.90;;;;;;5091377;28;20420;-47
2022/11/09 01:40:32;;;;;;;9.80;6.05;;;12.60;99.90;;;;;;5091299;28;20039;-49
2022/11/09 01:42:58;;;;;;;15.10;6.93;;;12.70;99.90;;;;;;5091003;28;20555;-47
2022/11/09 01:45:27;;;;;;;20.90;6.85;;;12.70;99.90;;;;;;5091120;28;20059;-48
2022/11/09 01:48:12;;;;;;;7.55;5.95;;;12.70;99.90;;;;;;5091234;28;20020;-47
2022/11/09 01:50:49;;;;;;;7.38;6.65;;;12.70;99.90;;;;;;5090426;28;20074;-49
2022/11/09 01:53:19;;;;;;;13.93;7.72;;;12.70;99.90;;;;;;5091535;28;20024;-50
2022/11/09 01:55:49;;;;;;;10.05;6.97;;;12.80;99.90;;;;;;5091711;28;20195;-52
2022/11/09 01:58:19;;;;;;;9.20;7.00;;;12.80;99.90;;;;;;5091137;28;20085;-48
2022/11/09 02:00:48;;;;;;;14.00;7.20;;;12.80;99.90;;;;;;5091554;28;20021;-49
2022/11/09 02:03:24;;;;;;;9.05;7.03;;;12.80;99.90;;;;;;5090853;28;20103;-47
2022/11/09 02:05:51;;;;;;;8.63;7.22;;;12.80;99.90;;;;;;5091330;28;20115;-49
2022/11/09 02:08:19;;;;;;;10.88;7.32;;;12.80;99.90;;;;;;5089853;28;20020;-48
2022/11/09 02:11:02;;;;;;;9.48;7.57;;;12.80;99.90;;;;;;5091190;28;20020;-46
2022/11/09 02:13:29;;;;;;;12.30;8.23;;;12.90;99.90;;;;;;5090839;28;20525;-48
2022/11/09 02:15:54;;;;;;;12.50;8.07;;;12.90;99.90;;;;;;5090686;28;20158;-47
2022/11/09 02:18:20;;;;;;;9.75;8.05;;;12.90;99.90;;;;;;5089644;28;20466;-48
2022/11/09 02:20:52;;;;;;;12.75;8.85;;;12.80;99.90;;;;;;5089910;28;20031;-50
2022/11/09 02:23:18;;;;;;;11.35;8.70;;;12.90;99.90;;;;;;5090826;28;20020;-49
2022/11/09 02:25:48;;;;;;;10.77;9.15;;;12.90;99.90;;;;;;5089532;28;20442;-49
2022/11/09 02:28:16;;;;;;;12.57;7.97;;;12.90;99.90;;;;;;5090973;28;20031;-49
2022/11/09 02:30:45;;;;;;;9.57;7.47;;;12.90;99.90;;;;;;5090870;28;20107;-48
2022/11/09 02:33:11;;;;;;;12.18;7.47;;;12.90;99.90;;;;;;5094303;28;20392;-48
2022/11/09 02:35:36;;;;;;;12.30;6.82;;;12.90;99.90;;;;;;5094407;28;20032;-48
2022/11/09 02:38:02;;;;;;;19.02;13.35;;;13.00;99.90;;;;;;5094474;28;20024;-49
2022/11/09 02:40:32;;;;;;;11.32;7.72;;;13.00;99.90;;;;;;5094548;28;20035;-46
2022/11/09 02:43:00;;;;;;;10.80;7.25;;;13.00;99.90;;;;;;5094306;28;20075;-49
2022/11/09 02:45:25;;;;;;;7.57;6.65;;;13.00;99.90;;;;;;5094361;28;20566;-52
2022/11/09 02:47:51;;;;;;;8.80;6.68;;;13.00;99.90;;;;;;5094206;28;20062;-47
2022/11/09 02:50:17;;;;;;;8.77;6.80;;;13.00;99.90;;;;;;5092993;28;20028;-49
2022/11/09 02:52:42;;;;;;;11.77;6.07;;;13.00;99.90;;;;;;5094041;28;20123;-48
2022/11/09 02:55:08;;;;;;;8.82;6.75;;;13.00;99.90;;;;;;5093995;28;20042;-52
2022/11/09 02:57:34;;;;;;;8.15;6.55;;;13.00;99.90;;;;;;5093989;28;20138;-54
2022/11/09 02:59:59;;;;;;;7.82;6.15;;;13.00;99.90;;;;;;5093865;28;20416;-49
2022/11/09 03:02:25;;;;;;;13.70;6.28;;;13.00;99.90;;;;;;5093817;28;20024;-49
2022/11/09 03:04:50;;;;;;;8.15;6.53;;;13.10;99.90;;;;;;5093744;28;20512;-49
2022/11/09 03:07:16;;;;;;;9.68;6.30;;;13.10;99.90;;;;;;5093696;28;20028;-50
2022/11/09 03:09:41;;;;;;;9.75;6.80;;;13.00;99.90;;;;;;5094085;28;20388;-47
2022/11/09 03:14:51;;;;;;;9.75;8.30;;;13.00;99.90;;;;;;5093192;28;20034;-48
2022/11/09 03:17:17;;;;;;;11.63;8.07;;;13.00;99.90;;;;;;5093552;28;20028;-49
2022/11/09 03:19:43;;;;;;;9.52;8.43;;;13.00;99.90;;;;;;5093665;28;20107;-47
2022/11/09 03:22:09;;;;;;;11.90;8.23;;;13.00;99.90;;;;;;5093312;28;20386;-47
2022/11/09 03:24:34;;;;;;;9.50;7.78;;;13.00;99.90;;;;;;5093544;28;20430;-47
2022/11/09 03:27:00;;;;;;;11.90;8.27;;;13.00;99.90;;;;;;5093322;28;20020;-47
2022/11/09 03:29:25;;;;;;;9.88;7.40;;;13.00;99.90;;;;;;5093439;28;20112;-47
2022/11/09 03:31:51;;;;;;;9.20;8.10;;;13.00;99.90;;;;;;5093213;28;20031;-45
2022/11/09 03:34:16;;;;;;;13.35;7.80;;;13.10;99.90;;;;;;5093422;28;20024;-47
2022/11/09 03:36:42;;;;;;;12.10;8.07;;;13.10;99.90;;;;;;5093154;28;20439;-51
2022/11/09 03:39:07;;;;;;;10.35;8.23;;;13.00;99.90;;;;;;5093078;28;20107;-46
2022/11/09 03:41:33;;;;;;;9.10;7.43;;;13.00;99.90;;;;;;5093194;28;20089;-46
2022/11/09 03:43:59;;;;;;;10.93;8.57;;;13.10;99.90;;;;;;5092848;28;20016;-47
2022/11/09 03:46:24;;;;;;;13.40;8.18;;;13.10;99.90;;;;;;5091974;28;20020;-48
2022/11/09 03:48:50;;;;;;;13.15;7.70;;;13.00;99.90;;;;;;5093270;28;20032;-46
2022/11/09 03:51:15;;;;;;;10.63;7.75;;;13.10;99.90;;;;;;5093148;28;20016;-47
2022/11/09 03:53:41;;;;;;;12.50;7.72;;;13.00;99.90;;;;;;5092928;28;20024;-49
2022/11/09 03:56:07;;;;;;;9.50;7.82;;;13.00;99.90;;;;;;5093094;28;20071;-47
2022/11/09 03:58:32;;;;;;;9.60;8.35;;;13.10;99.90;;;;;;5092973;28;20286;-50
2022/11/09 04:00:58;;;;;;;8.32;7.47;;;13.00;99.90;;;;;;5092949;28;20027;-47
2022/11/09 04:03:23;;;;;;;9.95;7.00;;;13.00;99.90;;;;;;5092942;28;20027;-49
2022/11/09 04:05:49;;;;;;;7.25;6.55;;;13.00;99.90;;;;;;5092480;28;20028;-51
2022/11/09 04:08:14;;;;;;;8.38;6.97;;;13.00;99.90;;;;;;5093424;28;20475;-48
2022/11/09 04:10:39;;;;;;;9.10;6.57;;;13.00;99.90;;;;;;5093035;28;20487;-47
2022/11/09 04:13:05;;;;;;;8.32;6.80;;;13.00;99.90;;;;;;5092864;28;20030;-49
2022/11/09 04:15:30;;;;;;;9.15;6.22;;;13.00;99.90;;;;;;5092398;28;20430;-46
2022/11/09 04:18:00;;;;;;;7.05;6.25;;;13.00;99.90;;;;;;5092766;28;20448;-48
2022/11/09 04:20:28;;;;;;;9.27;7.13;;;13.00;99.90;;;;;;5092951;28;20043;-49
2022/11/09 04:23:00;;;;;;;7.68;6.88;;;13.00;99.90;;;;;;5092258;28;20077;-49
2022/11/09 04:25:27;;;;;;;8.70;7.18;;;13.00;99.90;;;;;;5092400;28;20558;-52
2022/11/09 04:27:54;;;;;;;11.50;7.50;;;13.00;99.90;;;;;;5091050;28;20036;-47
2022/11/09 04:30:20;;;;;;;12.38;7.57;;;13.00;99.90;;;;;;5092642;28;20028;-50
2022/11/09 04:32:46;;;;;;;12.43;7.05;;;13.00;99.90;;;;;;5094334;28;20099;-49
2022/11/09 04:35:11;;;;;;;8.30;6.82;;;12.90;99.90;;;;;;5094979;28;20503;-46
2022/11/09 04:37:36;;;;;;;11.13;7.43;;;13.00;99.90;;;;;;5095342;28;20047;-49
2022/11/09 04:40:02;;;;;;;8.95;7.68;;;12.90;99.90;;;;;;5095496;28;20125;-47
2022/11/09 04:42:28;;;;;;;11.82;7.95;;;12.90;99.90;;;;;;5094293;28;20057;-48
2022/11/09 04:44:53;;;;;;;11.18;8.13;;;12.80;99.90;;;;;;5092143;28;20020;-50
2022/11/09 04:47:19;;;;;;;11.88;8.85;;;12.90;99.90;;;;;;5091820;28;20526;-50
2022/11/09 04:49:44;;;;;;;11.18;8.30;;;12.80;99.90;;;;;;5092172;28;20028;-49
2022/11/09 04:52:10;;;;;;;12.85;8.18;;;12.80;99.90;;;;;;5091921;28;20111;-50
2022/11/09 04:54:35;;;;;;;12.65;8.20;;;12.80;99.90;;;;;;5091942;28;20502;-50
2022/11/09 04:57:01;;;;;;;17.05;9.75;;;13.20;99.90;;;;;;5092108;28;20168;-49
2022/11/09 04:59:26;;;;;;;16.90;10.25;;;12.80;99.90;;;;;;5092000;28;20040;-48
2022/11/09 05:01:52;;;;;;;13.85;9.68;;;12.80;99.90;;;;;;5091850;28;20049;-50
2022/11/09 05:04:17;;;;;;;12.35;9.38;;;12.90;99.90;;;;;;5091653;28;20020;-49
2022/11/09 05:06:43;;;;;;;13.18;10.93;;;12.90;99.90;;;;;;5094850;22;20045;-47
2022/11/09 05:09:08;;;;;;;16.90;11.30;;;12.90;99.90;;;;;;5051494;28;20029;-48
2022/11/09 05:11:35;;;;;;;13.90;11.15;;;12.90;99.90;;;;;;5050075;28;20025;-50
2022/11/09 05:14:01;;;;;;;16.92;10.95;;;12.80;99.90;;;;;;5050857;28;20114;-48
2022/11/09 05:16:29;;;;;;;17.83;10.90;;;12.80;99.90;;;;;;5058133;28;20031;-48
2022/11/09 05:18:55;;;;;;;16.98;11.60;;;12.80;99.90;;;;;;5071149;28;20048;-49
2022/11/09 05:21:20;;;;;;;13.82;10.82;;;12.80;99.90;;;;;;5071576;28;20516;-49
2022/11/09 05:23:58;;;;;;;18.13;11.48;;;12.80;99.90;;;;;;5071020;28;20036;-43
2022/11/09 05:26:37;;;;;;;11.73;10.07;;;12.80;99.90;;;;;;5071202;28;20047;-47
2022/11/09 05:29:08;;;;;;;11.27;9.35;;;12.80;99.90;;;;;;5070975;28;20039;-47
2022/11/09 05:31:34;;;;;;;16.55;10.18;;;12.70;99.90;;;;;;5069816;28;20100;-45
2022/11/09 05:34:00;;;;;;;13.10;10.30;;;12.70;99.90;;;;;;5070900;28;20028;-47
2022/11/09 05:36:28;;;;;;;23.45;11.80;;;12.70;99.90;;;;;;5071201;28;20033;-45
2022/11/09 05:38:53;;;;;;;13.73;11.98;;;12.70;99.90;;;;;;5070868;28;20052;-45
2022/11/09 05:41:19;;;;;;;16.63;11.57;;;12.80;99.90;;;;;;5071483;28;20062;-44
2022/11/09 05:43:45;;;;;;;18.75;12.38;;;12.70;99.90;;;;;;5071410;28;20025;-48
2022/11/09 05:46:13;;;;;;;15.60;12.77;;;12.70;99.90;;;;;;5071633;28;20023;-51
2022/11/09 05:48:39;;;;;;;20.48;13.85;;;12.70;99.90;;;;;;5072227;28;20052;-49
2022/11/09 05:51:06;;;;;;;16.10;14.32;;;12.70;99.90;;;;;;5071897;28;20025;-43
2022/11/09 05:53:32;;;;;;;19.65;14.80;;;12.70;99.90;;;;;;5070850;28;20452;-42
2022/11/09 05:56:05;;;;;;;27.60;15.18;;;12.70;99.90;;;;;;5071160;28;20059;-49
2022/11/09 05:58:35;;;;;;;19.52;17.08;;;12.70;99.90;;;;;;5071059;28;20021;-46
2022/11/09 06:01:04;;;;;;;24.25;17.25;;;12.70;99.90;;;;;;5071077;28;20056;-45
2022/11/09 06:03:30;;;;;;;20.30;17.33;;;12.70;99.90;;;;;;5070419;28;20091;-46
2022/11/09 06:06:03;;;;;;;22.60;16.30;;;12.70;99.90;;;;;;5070933;28;20095;-47
2022/11/09 06:08:29;;;;;;;24.08;16.70;;;12.60;99.90;;;;;;5074831;28;20101;-46
2022/11/09 06:11:03;;;;;;;21.58;17.63;;;12.60;99.90;;;;;;5074893;28;20073;-45
2022/11/09 06:13:29;;;;;;;22.02;17.30;;;12.60;99.90;;;;;;5074925;28;20112;-43
2022/11/09 06:15:56;;;;;;;20.35;17.20;;;12.60;99.90;;;;;;5074012;28;20036;-45
2022/11/09 06:18:23;;;;;;;24.65;17.88;;;12.60;99.90;;;;;;5074419;28;20016;-51
2022/11/09 06:20:53;;;;;;;23.52;18.55;;;12.60;99.90;;;;;;5074487;28;20020;-42
2022/11/09 06:23:24;;;;;;;22.15;17.08;;;12.60;99.90;;;;;;5074163;28;20044;-48
2022/11/09 06:25:56;;;;;;;21.35;16.35;;;12.60;99.90;;;;;;5074586;28;20043;-43
2022/11/09 06:28:22;;;;;;;20.23;16.95;;;12.50;99.90;;;;;;5074132;28;20543;-47
2022/11/09 06:30:47;;;;;;;24.23;17.75;;;12.60;99.90;;;;;;5074388;28;20108;-45
2022/11/09 06:33:13;;;;;;;20.85;16.70;;;12.60;99.90;;;;;;5074009;28;20419;-50
2022/11/09 06:35:39;;;;;;;18.40;16.27;;;12.60;99.90;;;;;;5074179;28;20070;-47
2022/11/09 06:38:04;;;;;;;25.92;17.02;;;12.60;99.90;;;;;;5074863;28;20028;-41
2022/11/09 06:40:30;;;;;;;25.35;16.88;;;12.50;99.90;;;;;;5074541;28;20071;-44
2022/11/09 06:42:59;;;;;;;23.38;18.52;;;12.50;99.90;;;;;;5073737;28;20025;-44
2022/11/09 06:45:27;;;;;;;21.00;16.55;;;12.60;99.90;;;;;;5074337;28;20036;-43
2022/11/09 06:47:57;;;;;;;20.23;16.17;;;12.50;99.90;;;;;;5074649;28;20387;-43
2022/11/09 06:50:22;;;;;;;21.00;16.73;;;12.60;99.90;;;;;;5074980;28;20119;-43
2022/11/09 06:52:48;;;;;;;19.95;16.17;;;12.60;99.90;;;;;;5073958;28;20100;-44
2022/11/09 06:55:13;;;;;;;21.15;15.80;;;12.60;99.90;;;;;;5074074;28;20020;-49
2022/11/09 06:57:39;;;;;;;18.02;15.50;;;12.60;99.90;;;;;;5073650;28;20024;-47
2022/11/09 07:00:06;;;;;;;15.90;13.60;;;12.60;99.90;;;;;;5073555;28;20056;-50
2022/11/09 07:02:31;;;;;;;13.75;12.25;;;12.70;99.90;;;;;;5073518;28;20021;-45
2022/11/09 07:04:57;;;;;;;16.15;12.13;;;12.70;99.90;;;;;;5073605;28;20023;-45
2022/11/09 07:07:23;;;;;;;15.07;12.32;;;12.70;99.90;;;;;;5073497;28;20029;-49
2022/11/09 07:09:48;;;;;;;16.48;11.88;;;12.70;99.90;;;;;;5072043;28;20021;-49
2022/11/09 07:12:14;;;;;;;14.73;11.30;;;12.80;99.90;;;;;;5073168;28;20035;-47
2022/11/09 07:14:39;;;;;;;12.82;10.90;;;12.80;99.90;;;;;;5073230;28;20124;-45
2022/11/09 07:17:05;;;;;;;11.95;10.50;;;12.90;99.90;;;;;;5072876;28;20056;-50
2022/11/09 07:19:30;;;;;;;14.85;9.98;;;13.00;99.90;;;;;;5073254;28;20107;-49
2022/11/09 07:21:56;;;;;;;17.55;11.70;;;13.00;99.90;;;;;;5073104;28;20100;-44
2022/11/09 07:24:22;;;;;;;14.18;10.60;;;13.00;99.90;;;;;;5073354;28;20543;-50
2022/11/09 07:26:48;;;;;;;14.93;10.18;;;13.00;99.90;;;;;;5073267;28;20029;-45
2022/11/09 07:29:15;;;;;;;11.82;10.32;;;13.00;99.90;;;;;;5073716;28;20078;-51
2022/11/09 07:31:40;;;;;;;12.55;10.75;;;12.90;99.90;;;;;;5072207;28;20127;-50
2022/11/09 07:34:06;;;;;;;16.02;12.57;;;13.00;99.90;;;;;;5071531;28;20115;-47
2022/11/09 07:36:32;;;;;;;15.73;10.23;;;13.00;99.90;;;;;;5071758;28;20029;-49
2022/11/09 07:38:58;;;;;;;11.68;9.68;;;13.00;99.90;;;;;;5073113;28;20024;-44
2022/11/09 07:41:23;;;;;;;15.23;11.38;;;13.00;99.90;;;;;;5073278;28;20395;-46
2022/11/09 07:43:49;;;;;;;13.95;11.10;;;13.00;99.90;;;;;;5072895;28;20036;-45
2022/11/09 07:46:15;;;;;;;13.80;10.98;;;13.00;99.90;;;;;;5071871;28;20024;-40
2022/11/09 07:48:40;;;;;;;13.27;10.80;;;13.00;99.90;;;;;;5072867;28;20035;-44
2022/11/09 07:51:06;;;;;;;12.27;10.98;;;13.00;99.90;;;;;;5072835;28;20104;-45
2022/11/09 07:53:31;;;;;;;12.43;10.30;;;13.00;99.90;;;;;;5072585;28;20103;-40
2022/11/09 07:55:59;;;;;;;13.45;10.20;;;13.00;99.90;;;;;;5072581;28;20036;-46
2022/11/09 07:58:25;;;;;;;13.50;10.40;;;13.00;99.90;;;;;;5072518;28;20446;-44
2022/11/09 08:00:51;;;;;;;11.25;10.07;;;13.00;99.90;;;;;;5072574;28;20024;-47
2022/11/09 08:03:20;;;;;;;14.93;10.40;;;13.00;99.90;;;;;;5072261;28;20050;-44
2022/11/09 08:05:47;;;;;;;13.35;10.15;;;13.00;99.90;;;;;;5072378;28;20392;-45
2022/11/09 08:08:14;;;;;;;10.75;9.50;;;13.00;99.90;;;;;;5072704;28;20498;-46
2022/11/09 08:10:40;;;;;;;15.02;10.50;;;13.00;99.90;;;;;;5072270;28;20029;-44
2022/11/09 08:13:10;;;;;;;13.73;11.07;;;13.00;99.90;;;;;;5070949;28;20024;-46
2022/11/09 08:15:37;;;;;;;12.43;10.55;;;13.00;99.90;;;;;;5072124;28;20043;-46
2022/11/09 08:18:06;;;;;;;14.57;10.60;;;13.00;99.90;;;;;;5072195;28;20024;-45
2022/11/09 08:20:33;;;;;;;12.45;9.57;;;13.00;99.90;;;;;;5072274;28;20527;-45
2022/11/09 08:22:59;;;;;;;13.02;9.55;;;13.00;99.90;;;;;;5072180;28;20146;-43
2022/11/09 08:25:24;;;;;;;13.65;10.63;;;13.10;99.90;;;;;;5072098;28;20100;-45
2022/11/09 08:27:50;;;;;;;13.05;10.30;;;13.10;99.90;;;;;;5072658;28;20028;-45
2022/11/09 08:30:20;;;;;;;10.27;9.18;;;13.10;99.90;;;;;;5071605;28;20028;-45
2022/11/09 08:32:46;;;;;;;10.40;9.40;;;13.10;99.90;;;;;;5072577;28;20040;-48
2022/11/09 08:35:16;;;;;;;19.42;8.65;;;13.10;99.90;;;;;;5072667;28;20028;-44
2022/11/09 08:37:43;;;;;;;9.48;8.40;;;13.10;99.90;;;;;;5071960;28;20020;-45
2022/11/09 08:40:10;;;;;;;9.90;8.32;;;13.10;99.90;;;;;;5071552;28;20032;-46
2022/11/09 08:42:36;;;;;;;9.05;6.97;;;13.10;99.90;;;;;;5070175;28;20021;-46
2022/11/09 08:45:02;;;;;;;9.35;7.10;;;13.10;99.90;;;;;;5071688;28;20040;-46
2022/11/09 08:47:28;;;;;;;9.63;6.85;;;13.20;99.90;;;;;;5072401;28;20091;-45
2022/11/09 08:49:53;;;;;;;9.60;6.32;;;13.20;99.90;;;;;;5071706;28;20437;-51
2022/11/09 08:52:19;;;;;;;7.93;5.95;;;13.30;99.90;;;;;;5070925;28;20031;-42
2022/11/09 08:54:44;;;;;;;7.20;4.72;;;13.40;99.90;;;;;;5063241;28;20500;-40
2022/11/09 08:57:10;;;;;;;6.38;4.38;;;13.40;99.90;;;;;;5066334;28;20039;-44
2022/11/09 08:59:35;;;;;;;4.40;4.03;;;13.40;99.90;;;;;;5071862;28;20174;-44
2022/11/09 09:02:01;;;;;;;4.20;3.80;;;13.40;99.90;;;;;;5071570;28;20024;-43
2022/11/09 09:04:26;;;;;;;5.60;3.78;;;13.50;99.90;;;;;;5071229;28;20028;-44
2022/11/09 09:06:52;;;;;;;5.78;3.25;;;13.50;99.90;;;;;;5071086;28;20399;-46
2022/11/09 09:09:18;;;;;;;3.50;3.20;;;13.80;99.90;;;;;;5071306;28;20035;-43
2022/11/09 09:11:43;;;;;;;2.53;2.33;;;14.10;99.90;;;;;;5072098;28;20024;-42
2022/11/09 09:14:09;;;;;;;5.25;2.17;;;14.60;99.90;;;;;;5071492;28;20051;-44
2022/11/09 09:16:34;;;;;;;2.60;2.40;;;15.30;99.90;;;;;;5071486;28;20185;-44
2022/11/09 09:19:00;;;;;;;2.15;1.95;;;15.80;99.90;;;;;;5071503;28;20102;-43
2022/11/09 09:21:25;;;;;;;3.88;2.13;;;16.20;99.90;;;;;;5071418;28;20045;-43
2022/11/09 09:23:51;;;;;;;2.33;2.00;;;16.50;99.90;;;;;;5071544;28;20571;-56
2022/11/09 09:26:16;;;;;;;1.73;1.42;;;16.50;99.90;;;;;;5071363;28;20091;-47
2022/11/09 09:28:42;;;;;;;7.80;2.30;;;16.40;99.90;;;;;;5071484;28;20532;-48
2022/11/09 09:31:08;;;;;;;1.98;1.63;;;16.30;99.90;;;;;;5071331;28;20422;-51
2022/11/09 09:33:33;;;;;;;4.50;2.03;;;16.20;99.90;;;;;;5071065;28;20021;-45
2022/11/09 09:35:59;;;;;;;3.72;1.60;;;16.00;99.90;;;;;;5071457;28;20074;-49
2022/11/09 09:38:26;;;;;;;7.93;1.50;;;15.90;99.90;;;;;;5064617;28;20052;-49
2022/11/09 09:40:58;;;;;;;1.60;1.27;;;15.70;99.90;;;;;;5071976;28;20024;-48
2022/11/09 09:43:33;;;;;;;5.60;1.40;;;15.40;99.90;;;;;;5073642;28;20039;-48
2022/11/09 09:46:01;;;;;;;;;;;15.20;99.90;;;;;;5074800;28;20035;-50
2022/11/09 09:48:36;;;;;;;26.33;2.00;;;15.20;99.90;;;;;;5073857;28;19931;-50
2022/11/09 09:51:28;;;;;;;4.68;1.92;;;15.10;99.90;;;;;;5072921;28;20519;-53
2022/11/09 09:53:59;;;;;;;6.22;2.28;;;14.90;99.90;;;;;;5062233;28;20446;-51
2022/11/09 09:56:31;;;;;;;4.75;2.38;;;14.70;99.90;;;;;;5074294;28;20036;-53
2022/11/09 09:59:17;;;;;;;4.05;2.75;;;14.60;99.90;;;;;;5074109;28;20024;-50
2022/11/09 10:01:43;;;;;;;;;;;14.30;99.90;;;;;;5074211;28;20430;-47
2022/11/09 10:04:24;;;;;;;3.67;2.42;;;14.20;99.90;;;;;;5073992;28;19908;-48
2022/11/09 10:07:09;;;;;;;4.72;2.97;;;14.20;99.90;;;;;;5072792;28;20082;-49
2022/11/09 10:09:43;;;;;;;3.10;2.28;;;14.10;99.90;;;;;;5074941;28;20048;-49
2022/11/09 10:12:20;;;;;;;7.65;2.67;;;14.10;99.90;;;;;;5073415;28;20410;-47
2022/11/09 10:15:05;;;;;;;2.30;2.00;;;14.10;99.90;;;;;;5072929;28;20020;-47
2022/11/09 10:17:39;;;;;;;2.72;2.20;;;14.10;99.90;;;;;;5073348;28;20040;-47
2022/11/09 10:20:33;;;;;;;3.22;2.10;;;14.20;99.90;;;;;;5073621;28;20063;-48
2022/11/09 10:23:20;;;;;;;4.18;2.00;;;14.20;99.90;;;;;;5074370;28;20078;-48
2022/11/09 10:25:49;;;;;;;2.30;2.00;;;14.30;99.90;;;;;;5074625;28;20013;-47
2022/11/09 10:28:16;;;;;;;4.07;2.17;;;14.30;99.90;;;;;;5074144;28;20029;-49
2022/11/09 10:30:42;;;;;;;4.40;2.95;;;14.40;99.90;;;;;;5074339;28;20032;-46
2022/11/09 10:33:10;;;;;;;4.07;2.58;;;14.40;99.90;;;;;;5074348;28;20025;-43
2022/11/09 10:35:56;;;;;;;5.07;2.58;;;14.50;99.90;;;;;;5074519;28;20112;-43
2022/11/09 10:38:31;;;;;;;4.32;2.10;;;14.50;99.90;;;;;;5074301;28;20395;-44
2022/11/09 10:41:11;;;;;;;4.20;2.60;;;14.50;99.90;;;;;;5069405;28;20048;-50
2022/11/09 10:43:37;;;;;;;3.83;2.20;;;14.50;99.90;;;;;;5065288;28;20037;-45
2022/11/09 10:46:06;;;;;;;2.72;2.42;;;14.50;99.90;;;;;;5072808;28;20024;-43
2022/11/09 10:48:34;;;;;;;3.00;2.38;;;14.60;99.90;;;;;;5073494;28;20025;-44
2022/11/09 10:51:00;;;;;;;5.05;2.60;;;14.60;99.90;;;;;;5073334;28;20029;-45
2022/11/09 10:53:30;;;;;;;18.90;11.18;;;14.70;99.90;;;;;;5073559;28;20020;-44
2022/11/09 10:56:10;;;;;;;9.25;6.57;;;14.70;99.90;;;;;;5073980;28;20021;-45
2022/11/09 10:58:48;;;;;;;3.20;2.67;;;14.80;99.90;;;;;;5074209;28;20028;-43
2022/11/09 11:01:22;;;;;;;3.92;2.20;;;14.90;99.90;;;;;;5073897;28;20126;-43
2022/11/09 11:03:52;;;;;;;2.10;1.88;;;15.10;99.90;;;;;;5073324;28;20093;-43
2022/11/09 11:06:21;;;;;;;1.65;1.55;;;15.30;99.90;;;;;;5073660;28;20033;-41
2022/11/09 11:09:05;;;;;;;3.42;1.58;;;15.40;99.90;;;;;;5073223;28;20024;-39
2022/11/09 11:11:32;;;;;;;7.53;1.92;;;15.50;99.90;;;;;;5057278;28;20075;-41
2022/11/09 11:14:29;;;;;;;1.83;1.67;;;15.50;99.90;;;;;;5052130;28;20064;-41
2022/11/09 11:16:55;;;;;;;4.50;1.52;;;15.40;99.90;;;;;;5052568;28;20029;-40
2022/11/09 11:19:36;;;;;;;3.05;1.40;;;15.30;99.90;;;;;;5058678;28;20026;-45
2022/11/09 11:22:10;;;;;;;7.55;2.38;;;15.30;99.90;;;;;;5076831;28;20044;-42
2022/11/09 11:24:57;;;;;;;5.63;1.70;;;15.20;99.90;;;;;;5079698;28;20032;-39
2022/11/09 11:27:38;;;;;;;1.55;1.45;;;15.20;99.90;;;;;;5075733;28;20024;-45
2022/11/09 11:30:14;;;;;;;2.50;1.50;;;15.20;99.90;;;;;;5073216;28;20424;-42
2022/11/09 11:32:40;;;;;;;2.65;1.52;;;15.20;99.90;;;;;;5073086;28;20063;-41
2022/11/09 11:35:15;;;;;;;2.95;1.23;;;15.40;99.90;;;;;;5072623;28;20148;-44
2022/11/09 11:38:09;;;;;;;2.28;1.42;;;15.50;99.90;;;;;;5072688;28;20033;-43
2022/11/09 11:40:46;;;;;;;2.22;1.10;;;15.70;99.90;;;;;;5072039;28;20032;-44
2022/11/09 11:43:33;;;;;;;1.50;1.15;;;15.80;99.90;;;;;;5073095;28;20017;-42
2022/11/09 11:46:06;;;;;;;2.03;1.10;;;15.70;99.90;;;;;;5072947;28;20032;-42
2022/11/09 11:48:56;;;;;;;7.35;1.30;;;15.70;99.90;;;;;;5073301;28;20025;-43
2022/11/09 11:51:55;;;;;;;2.33;1.20;;;15.70;99.90;;;;;;5073369;28;20017;-41
2022/11/09 11:54:37;;;;;;;3.33;1.50;;;15.60;99.90;;;;;;5048903;28;20079;-44
2022/11/09 11:57:36;;;;;;;3.78;1.60;;;15.60;99.90;;;;;;5072086;28;20250;-46
2022/11/09 12:00:09;;;;;;;10.18;2.75;;;15.60;99.90;;;;;;5051544;28;20025;-48
2022/11/09 12:03:13;;;;;;;2.80;1.20;;;15.70;99.90;;;;;;5064610;28;20017;-44
2022/11/09 12:06:08;;;;;;;3.38;1.27;;;15.70;99.90;;;;;;5072132;28;20484;-43
2022/11/09 12:08:57;;;;;;;8.07;1.15;;;15.80;99.90;;;;;;5073363;28;20032;-42
2022/11/09 12:11:42;;;;;;;3.55;1.63;;;15.80;99.90;;;;;;5061325;28;20021;-47
2022/11/09 12:14:28;;;;;;;1.80;1.60;;;15.80;99.90;;;;;;5053402;28;20017;-42
2022/11/09 12:17:11;;;;;;;1.40;1.05;;;15.80;99.90;;;;;;5071889;28;20024;-45
2022/11/09 12:20:10;;;;;;;3.10;1.10;;;15.90;99.90;;;;;;5071329;28;20025;-43
2022/11/09 12:23:10;;;;;;;3.05;1.27;;;15.80;99.90;;;;;;5071608;28;20385;-42
2022/11/09 12:26:07;;;;;;;2.53;1.10;;;15.70;99.90;;;;;;5072259;28;20162;-42
2022/11/09 12:29:11;;;;;;;3.75;1.40;;;15.70;99.90;;;;;;5072109;28;20021;-40
2022/11/09 12:31:55;;;;;;;3.05;1.20;;;15.70;99.90;;;;;;5070849;28;20045;-40
2022/11/09 12:34:24;;;;;;;1.55;1.35;;;15.70;99.90;;;;;;5071974;28;20012;-43
2022/11/09 12:37:03;;;;;;;2.72;1.00;;;15.70;99.90;;;;;;5071420;28;20020;-42
2022/11/09 12:39:44;;;;;;;6.43;1.75;;;15.70;99.90;;;;;;5072373;28;20023;-47
2022/11/09 12:42:36;;;;;;;5.10;1.05;;;15.70;99.90;;;;;;5071554;28;20052;-43
2022/11/09 12:45:26;;;;;;;6.85;1.30;;;15.70;99.90;;;;;;5071108;28;20058;-45
2022/11/09 12:47:54;;;;;;;3.50;1.38;;;15.70;99.90;;;;;;5071900;28;20027;-41
2022/11/09 12:50:22;;;;;;;3.53;1.40;;;15.70;99.90;;;;;;5071521;28;20036;-41
2022/11/09 12:52:51;;;;;;;1.80;1.50;;;15.70;99.90;;;;;;5071443;28;20036;-42
2022/11/09 12:55:31;;;;;;;1.73;1.30;;;15.70;99.90;;;;;;5072214;28;20028;-40